Time;durP1;ratioP1;P1;durP2;ratioP2;P2;SDS_P1;SDS_P2;PMS_P1;PMS_P2;Temp;Humidity;BMP_temperature;BMP_pressure;BME280_temperature;BME280_humidity;BME280_pressure;Samples;Min_cycle;Max_cycle;Signal;HPM_P1;HPM_P2
2023/12/02 00:02:19;;;;;;;25.20;16.10;;;;;;;;;;4982965;28;20318;-78
2023/12/02 00:04:45;;;;;;;21.70;14.00;;;;;;;;;;4983521;28;20404;-78
2023/12/02 00:07:11;;;;;;;20.25;13.32;;;;;;;;;;4983151;28;20938;-79
2023/12/02 00:09:37;;;;;;;24.20;14.40;;;;;;;;;;4983730;28;20183;-78
2023/12/02 00:12:03;;;;;;;26.90;16.10;;;;;;;;;;4983525;28;20411;-78
2023/12/02 00:14:30;;;;;;;24.98;15.30;;;;;;;;;;4983977;28;20461;-78
2023/12/02 00:16:56;;;;;;;19.92;13.32;;;;;;;;;;4984301;28;20180;-78
2023/12/02 00:19:22;;;;;;;21.83;12.82;;;;;;;;;;4983705;28;20240;-78
2023/12/02 00:21:49;;;;;;;22.13;14.50;;;;;;;;;;4980522;28;20176;-79
2023/12/02 00:24:15;;;;;;;22.10;13.63;;;;;;;;;;4983004;28;20175;-79
2023/12/02 00:26:41;;;;;;;25.35;15.60;;;;;;;;;;4983152;28;20242;-78
2023/12/02 00:29:06;;;;;;;22.30;14.93;;;;;;;;;;4983133;28;20231;-79
2023/12/02 00:31:33;;;;;;;20.48;13.38;;;;;;;;;;5013884;28;20442;-78
2023/12/02 00:33:58;;;;;;;24.00;14.88;;;;;;;;;;4982692;28;20180;-78
2023/12/02 00:36:24;;;;;;;19.92;13.30;;;;;;;;;;4982871;28;20648;-78
2023/12/02 00:38:51;;;;;;;18.88;12.75;;;;;;;;;;4982925;28;20186;-78
2023/12/02 00:41:17;;;;;;;20.13;13.32;;;;;;;;;;4983233;28;20180;-79
2023/12/02 00:43:43;;;;;;;20.93;14.00;;;;;;;;;;4983097;28;20204;-78
2023/12/02 00:46:09;;;;;;;22.80;12.53;;;;;;;;;;4982705;28;20485;-79
2023/12/02 00:48:35;;;;;;;18.73;11.85;;;;;;;;;;4983132;28;20420;-79
2023/12/02 00:51:01;;;;;;;19.93;13.47;;;;;;;;;;4982677;28;20191;-78
2023/12/02 00:53:27;;;;;;;17.77;12.30;;;;;;;;;;4982448;28;20458;-79
2023/12/02 00:55:52;;;;;;;19.33;12.83;;;;;;;;;;4982326;28;20410;-78
2023/12/02 00:58:18;;;;;;;18.17;12.50;;;;;;;;;;4981957;28;20409;-79
2023/12/02 01:00:44;;;;;;;21.75;13.35;;;;;;;;;;4982705;28;20403;-79
2023/12/02 01:03:10;;;;;;;17.90;11.82;;;;;;;;;;4982364;28;20184;-79
2023/12/02 01:05:36;;;;;;;19.60;13.00;;;;;;;;;;4982379;28;20188;-78
2023/12/02 01:08:02;;;;;;;17.38;11.32;;;;;;;;;;4982186;28;20511;-78
2023/12/02 01:10:28;;;;;;;16.80;11.37;;;;;;;;;;4982608;28;20208;-79
2023/12/02 01:12:54;;;;;;;18.03;12.10;;;;;;;;;;4982386;28;20411;-78
2023/12/02 01:15:20;;;;;;;21.13;13.17;;;;;;;;;;4982495;28;20409;-79
2023/12/02 01:17:46;;;;;;;18.90;12.18;;;;;;;;;;4982906;28;20427;-79
2023/12/02 01:20:12;;;;;;;19.97;13.03;;;;;;;;;;4982305;28;20190;-79
2023/12/02 01:22:38;;;;;;;21.77;12.80;;;;;;;;;;4982254;28;20407;-78
2023/12/02 01:25:04;;;;;;;24.75;10.75;;;;;;;;;;4982683;28;20911;-78
2023/12/02 01:27:30;;;;;;;17.50;11.48;;;;;;;;;;4982179;28;20258;-78
2023/12/02 01:29:56;;;;;;;19.85;12.27;;;;;;;;;;4982972;28;20183;-79
2023/12/02 01:32:22;;;;;;;15.05;10.35;;;;;;;;;;4982306;28;20189;-79
2023/12/02 01:34:48;;;;;;;17.38;12.05;;;;;;;;;;4982056;28;20613;-78
2023/12/02 01:37:14;;;;;;;17.13;11.32;;;;;;;;;;4981812;28;20187;-79
2023/12/02 01:39:40;;;;;;;19.30;10.95;;;;;;;;;;4981878;28;20189;-79
2023/12/02 01:42:06;;;;;;;17.70;11.57;;;;;;;;;;4982200;28;20173;-79
2023/12/02 01:44:32;;;;;;;16.42;11.25;;;;;;;;;;4982506;28;20408;-79
2023/12/02 01:46:59;;;;;;;17.57;11.30;;;;;;;;;;4981581;28;20218;-79
2023/12/02 01:49:25;;;;;;;14.65;11.18;;;;;;;;;;4981299;28;20441;-78
2023/12/02 01:51:52;;;;;;;16.35;9.93;;;;;;;;;;4982268;28;20177;-79
2023/12/02 01:54:19;;;;;;;17.17;11.30;;;;;;;;;;4982124;28;20168;-79
2023/12/02 01:56:46;;;;;;;16.73;10.63;;;;;;;;;;4981550;28;20190;-78
2023/12/02 01:59:13;;;;;;;20.00;12.93;;;;;;;;;;4982065;28;20644;-79
2023/12/02 02:01:39;;;;;;;15.68;10.25;;;;;;;;;;4981833;28;20191;-79
2023/12/02 02:04:05;;;;;;;16.10;11.02;;;;;;;;;;4982363;28;20172;-78
2023/12/02 02:06:32;;;;;;;19.33;11.55;;;;;;;;;;4984085;28;20270;-78
2023/12/02 02:08:58;;;;;;;15.40;10.73;;;;;;;;;;4985778;28;20180;-78
2023/12/02 02:11:24;;;;;;;19.40;11.30;;;;;;;;;;4985206;28;20241;-78
2023/12/02 02:13:50;;;;;;;15.73;10.27;;;;;;;;;;4985665;28;20412;-79
2023/12/02 02:16:16;;;;;;;19.20;11.57;;;;;;;;;;4985617;28;20188;-79
2023/12/02 02:18:42;;;;;;;13.90;10.30;;;;;;;;;;4985508;28;20452;-79
2023/12/02 02:21:08;;;;;;;19.60;11.60;;;;;;;;;;4985716;28;20444;-78
2023/12/02 02:23:34;;;;;;;15.55;10.68;;;;;;;;;;4985480;28;20422;-79
2023/12/02 02:26:00;;;;;;;21.27;13.07;;;;;;;;;;4984633;28;20307;-79
2023/12/02 02:28:28;;;;;;;15.05;9.80;;;;;;;;;;4985270;28;20459;-78
2023/12/02 02:30:54;;;;;;;20.20;11.93;;;;;;;;;;4985458;28;20183;-78
2023/12/02 02:33:20;;;;;;;17.02;10.80;;;;;;;;;;4985656;28;20578;-78
2023/12/02 02:35:47;;;;;;;15.40;10.48;;;;;;;;;;4985681;28;20629;-78
2023/12/02 02:38:13;;;;;;;21.08;13.00;;;;;;;;;;4984465;28;20586;-79
2023/12/02 02:40:39;;;;;;;17.33;12.00;;;;;;;;;;4985529;28;20177;-79
2023/12/02 02:43:05;;;;;;;19.42;11.85;;;;;;;;;;4985189;28;20180;-78
2023/12/02 02:45:31;;;;;;;15.10;9.98;;;;;;;;;;4985332;28;20204;-78
2023/12/02 02:47:58;;;;;;;13.43;10.00;;;;;;;;;;4985082;28;20231;-78
2023/12/02 02:50:24;;;;;;;16.48;10.02;;;;;;;;;;4985645;28;20408;-78
2023/12/02 02:52:50;;;;;;;16.95;11.32;;;;;;;;;;4985335;28;20642;-78
2023/12/02 02:55:16;;;;;;;17.63;10.70;;;;;;;;;;4984753;28;20172;-79
2023/12/02 02:57:42;;;;;;;14.38;10.45;;;;;;;;;;4985715;28;20192;-78
2023/12/02 03:00:11;;;;;;;15.20;10.07;;;;;;;;;;4984662;28;20625;-78
2023/12/02 03:02:37;;;;;;;16.10;10.27;;;;;;;;;;4984685;28;20413;-79
2023/12/02 03:05:04;;;;;;;18.60;12.25;;;;;;;;;;4985300;28;20179;-78
2023/12/02 03:07:30;;;;;;;16.95;10.38;;;;;;;;;;4984857;28;20258;-79
2023/12/02 03:09:56;;;;;;;18.40;11.88;;;;;;;;;;4984261;28;20192;-78
2023/12/02 03:12:23;;;;;;;15.90;10.93;;;;;;;;;;4984454;28;20326;-78
2023/12/02 03:14:49;;;;;;;17.42;10.98;;;;;;;;;;4985107;28;20624;-78
2023/12/02 03:17:15;;;;;;;11.83;8.97;;;;;;;;;;4983967;28;20223;-78
2023/12/02 03:19:41;;;;;;;16.35;10.27;;;;;;;;;;4984591;28;20415;-78
2023/12/02 03:22:07;;;;;;;14.48;9.63;;;;;;;;;;4984989;28;20187;-78
2023/12/02 03:24:33;;;;;;;14.90;11.18;;;;;;;;;;4983658;28;20183;-78
2023/12/02 03:26:59;;;;;;;17.77;10.77;;;;;;;;;;4985188;28;20234;-78
2023/12/02 03:29:25;;;;;;;19.73;10.50;;;;;;;;;;4984391;28;20263;-78
2023/12/02 03:31:51;;;;;;;15.47;11.00;;;;;;;;;;4984377;28;20408;-78
2023/12/02 03:34:17;;;;;;;14.70;10.03;;;;;;;;;;4984188;28;20400;-79
2023/12/02 03:36:43;;;;;;;15.47;9.97;;;;;;;;;;4984043;28;20407;-78
2023/12/02 03:39:12;;;;;;;13.40;10.00;;;;;;;;;;4982813;28;20423;-78
2023/12/02 03:41:38;;;;;;;18.17;10.50;;;;;;;;;;4983565;28;20426;-78
2023/12/02 03:44:04;;;;;;;14.23;10.00;;;;;;;;;;4984401;28;20176;-78
2023/12/02 03:46:30;;;;;;;15.40;9.38;;;;;;;;;;4984016;28;20695;-78
2023/12/02 03:48:57;;;;;;;17.08;10.98;;;;;;;;;;4983705;28;20197;-78
2023/12/02 03:51:23;;;;;;;17.02;11.73;;;;;;;;;;4983943;28;20175;-78
2023/12/02 03:53:49;;;;;;;19.70;11.60;;;;;;;;;;4984137;28;20181;-78
2023/12/02 03:56:15;;;;;;;16.90;11.23;;;;;;;;;;4983837;28;20259;-80
2023/12/02 03:58:41;;;;;;;15.52;10.27;;;;;;;;;;4984014;28;20413;-78
2023/12/02 04:01:07;;;;;;;16.90;11.05;;;;;;;;;;4983303;28;20176;-78
2023/12/02 04:03:33;;;;;;;15.85;10.73;;;;;;;;;;4984104;28;20183;-78
2023/12/02 04:05:59;;;;;;;14.23;9.43;;;;;;;;;;4983838;28;20678;-78
2023/12/02 04:08:25;;;;;;;15.77;10.27;;;;;;;;;;4983765;28;20177;-79
2023/12/02 04:10:52;;;;;;;18.70;10.13;;;;;;;;;;4984199;28;20961;-78
2023/12/02 04:13:18;;;;;;;15.82;9.13;;;;;;;;;;4983909;28;20937;-79
2023/12/02 04:15:46;;;;;;;19.65;11.93;;;;;;;;;;4984063;28;20198;-78
2023/12/02 04:18:12;;;;;;;15.93;10.52;;;;;;;;;;4983595;28;20649;-78
2023/12/02 04:20:38;;;;;;;13.13;9.30;;;;;;;;;;4983087;28;20188;-78
2023/12/02 04:23:04;;;;;;;16.58;11.27;;;;;;;;;;4983922;28;20267;-78
2023/12/02 04:25:30;;;;;;;16.58;10.45;;;;;;;;;;4983324;28;20180;-78
2023/12/02 04:27:56;;;;;;;17.00;10.68;;;;;;;;;;4982961;28;20299;-79
2023/12/02 04:30:22;;;;;;;17.27;9.68;;;;;;;;;;4981459;28;20210;-78
2023/12/02 04:32:48;;;;;;;14.93;9.40;;;;;;;;;;4982759;28;20192;-78
2023/12/02 04:35:14;;;;;;;16.58;10.25;;;;;;;;;;4982490;28;20892;-78
2023/12/02 04:37:41;;;;;;;15.70;10.47;;;;;;;;;;4982378;28;20196;-78
2023/12/02 04:40:11;;;;;;;16.58;10.48;;;;;;;;;;4983124;28;20414;-78
2023/12/02 04:42:40;;;;;;;19.63;10.70;;;;;;;;;;4982759;28;20186;-78
2023/12/02 04:45:07;;;;;;;15.02;9.30;;;;;;;;;;4983385;28;20696;-78
2023/12/02 04:47:33;;;;;;;18.58;11.85;;;;;;;;;;4982518;28;20656;-78
2023/12/02 04:49:59;;;;;;;12.95;9.48;;;;;;;;;;4982817;28;20181;-78
2023/12/02 04:52:25;;;;;;;17.00;9.83;;;;;;;;;;4981944;28;20609;-79
2023/12/02 04:54:51;;;;;;;17.45;10.45;;;;;;;;;;4982596;28;20414;-78
2023/12/02 04:57:17;;;;;;;14.55;10.95;;;;;;;;;;4982552;28;20191;-78
2023/12/02 04:59:43;;;;;;;12.07;8.32;;;;;;;;;;4982335;28;20182;-78
2023/12/02 05:02:09;;;;;;;15.53;10.63;;;;;;;;;;4982184;28;20182;-78
2023/12/02 05:04:35;;;;;;;12.75;9.23;;;;;;;;;;4982816;28;20506;-79
2023/12/02 05:07:01;;;;;;;12.47;8.93;;;;;;;;;;4982679;28;20594;-78
2023/12/02 05:09:27;;;;;;;12.85;8.45;;;;;;;;;;4982546;28;20416;-78
2023/12/02 05:11:53;;;;;;;14.40;10.23;;;;;;;;;;4981608;28;20215;-78
2023/12/02 05:14:19;;;;;;;12.20;8.50;;;;;;;;;;4982914;28;20416;-78
2023/12/02 05:16:45;;;;;;;15.32;9.23;;;;;;;;;;4982231;28;20402;-79
2023/12/02 05:19:11;;;;;;;14.40;9.37;;;;;;;;;;4982810;28;20656;-78
2023/12/02 05:21:37;;;;;;;15.52;9.20;;;;;;;;;;4982713;28;20412;-78
2023/12/02 05:24:03;;;;;;;12.85;9.27;;;;;;;;;;4982747;28;20183;-79
2023/12/02 05:26:29;;;;;;;15.77;11.18;;;;;;;;;;4981715;28;20298;-79
2023/12/02 05:28:56;;;;;;;14.98;11.23;;;;;;;;;;4982271;28;20693;-78
2023/12/02 05:31:22;;;;;;;16.38;10.88;;;;;;;;;;4982682;28;20203;-79
2023/12/02 05:33:48;;;;;;;17.40;12.25;;;;;;;;;;4982887;28;20628;-78
2023/12/02 05:36:14;;;;;;;18.90;12.18;;;;;;;;;;4982200;28;20585;-78
2023/12/02 05:38:40;;;;;;;16.40;12.23;;;;;;;;;;4982172;28;20187;-78
2023/12/02 05:41:06;;;;;;;19.60;13.07;;;;;;;;;;4982362;28;20450;-78
2023/12/02 05:43:32;;;;;;;18.35;12.40;;;;;;;;;;4981744;28;20439;-78
2023/12/02 05:45:58;;;;;;;19.40;13.35;;;;;;;;;;4981759;28;20184;-78
2023/12/02 05:48:24;;;;;;;20.48;14.18;;;;;;;;;;4981826;28;20281;-79
2023/12/02 05:50:50;;;;;;;18.17;11.85;;;;;;;;;;4982124;28;20178;-78
2023/12/02 05:53:16;;;;;;;12.75;9.23;;;;;;;;;;4982193;28;20269;-78
2023/12/02 05:55:42;;;;;;;17.13;10.73;;;;;;;;;;4981203;28;20278;-79
2023/12/02 05:58:08;;;;;;;17.17;11.40;;;;;;;;;;4980852;28;20233;-78
2023/12/02 06:00:37;;;;;;;16.25;10.95;;;;;;;;;;4982107;28;20400;-78
2023/12/02 06:03:03;;;;;;;18.38;11.80;;;;;;;;;;4981663;28;20275;-78
2023/12/02 06:05:29;;;;;;;18.83;11.85;;;;;;;;;;4982232;28;20216;-78
2023/12/02 06:07:55;;;;;;;17.15;13.13;;;;;;;;;;4981715;28;20246;-78
2023/12/02 06:10:21;;;;;;;17.95;12.43;;;;;;;;;;4981158;28;20184;-78
2023/12/02 06:12:47;;;;;;;19.70;12.03;;;;;;;;;;4981694;28;20229;-78
2023/12/02 06:15:13;;;;;;;18.45;11.55;;;;;;;;;;4981954;28;20418;-78
2023/12/02 06:17:39;;;;;;;23.20;13.60;;;;;;;;;;4980443;28;20292;-78
2023/12/02 06:20:06;;;;;;;20.30;12.40;;;;;;;;;;4981604;28;20490;-78
2023/12/02 06:22:35;;;;;;;21.10;14.15;;;;;;;;;;4981270;28;20657;-78
2023/12/02 06:25:02;;;;;;;23.13;14.23;;;;;;;;;;4981972;28;20211;-78
2023/12/02 06:27:28;;;;;;;20.75;14.73;;;;;;;;;;4981619;28;20273;-79
2023/12/02 06:29:54;;;;;;;20.27;13.20;;;;;;;;;;4981286;28;20578;-79
2023/12/02 06:32:20;;;;;;;21.87;14.10;;;;;;;;;;4981078;28;20426;-78
2023/12/02 06:34:46;;;;;;;20.47;13.40;;;;;;;;;;4980918;28;20562;-79
2023/12/02 06:37:11;;;;;;;18.80;12.40;;;;;;;;;;4981843;28;20421;-78
2023/12/02 06:39:37;;;;;;;21.50;14.20;;;;;;;;;;4981852;28;20494;-79
2023/12/02 06:42:04;;;;;;;19.17;12.40;;;;;;;;;;4981198;28;20610;-80
2023/12/02 06:44:30;;;;;;;22.10;13.73;;;;;;;;;;4979060;28;20447;-83
2023/12/02 06:46:56;;;;;;;23.50;16.00;;;;;;;;;;5010271;28;20208;-82
2023/12/02 06:49:22;;;;;;;23.00;13.10;;;;;;;;;;4979069;28;20189;-82
2023/12/02 06:51:48;;;;;;;18.58;12.40;;;;;;;;;;4979366;28;20802;-81
2023/12/02 06:54:14;;;;;;;15.63;11.07;;;;;;;;;;4981725;28;20211;-81
2023/12/02 06:56:40;;;;;;;19.90;11.43;;;;;;;;;;4997262;28;20212;-82
2023/12/02 06:59:07;;;;;;;20.25;12.93;;;;;;;;;;4981602;28;20483;-82
2023/12/02 07:01:33;;;;;;;19.00;11.50;;;;;;;;;;4982199;28;20173;-82
2023/12/02 07:04:00;;;;;;;17.73;13.15;;;;;;;;;;4983237;28;20585;-81
2023/12/02 07:06:26;;;;;;;19.65;12.57;;;;;;;;;;4981420;28;20216;-83
2023/12/02 07:08:54;;;;;;;20.33;12.98;;;;;;;;;;4982649;28;20184;-81
2023/12/02 07:11:20;;;;;;;20.42;13.30;;;;;;;;;;4982494;28;20181;-81
2023/12/02 07:13:46;;;;;;;18.02;13.40;;;;;;;;;;4982708;28;20180;-82
2023/12/02 07:16:12;;;;;;;21.50;12.75;;;;;;;;;;4982242;28;20185;-82
2023/12/02 07:18:39;;;;;;;22.67;11.48;;;;;;;;;;4982256;28;20192;-82
2023/12/02 07:21:05;;;;;;;18.77;12.00;;;;;;;;;;4980992;28;20230;-82
2023/12/02 07:23:31;;;;;;;16.25;11.77;;;;;;;;;;4982314;28;20176;-82
2023/12/02 07:25:57;;;;;;;23.55;12.82;;;;;;;;;;4982580;28;20706;-82
2023/12/02 07:28:23;;;;;;;16.70;10.15;;;;;;;;;;4982647;28;20328;-81
2023/12/02 07:30:50;;;;;;;19.48;11.60;;;;;;;;;;4981744;28;20174;-82
2023/12/02 07:33:16;;;;;;;19.05;11.27;;;;;;;;;;4982023;28;20169;-81
2023/12/02 07:35:42;;;;;;;19.98;11.98;;;;;;;;;;4982220;28;20176;-81
2023/12/02 07:38:08;;;;;;;19.52;11.13;;;;;;;;;;5012934;28;20183;-81
2023/12/02 07:40:35;;;;;;;15.98;10.75;;;;;;;;;;4982085;28;20180;-82
2023/12/02 07:43:01;;;;;;;19.30;11.05;;;;;;;;;;4981547;28;20518;-81
2023/12/02 07:45:27;;;;;;;18.92;11.70;;;;;;;;;;4981001;28;20184;-81
2023/12/02 07:47:53;;;;;;;17.83;12.02;;;;;;;;;;4982165;28;20285;-81
2023/12/02 07:50:19;;;;;;;21.20;12.95;;;;;;;;;;4981749;28;20193;-81
2023/12/02 07:52:45;;;;;;;23.00;13.77;;;;;;;;;;4981282;28;20183;-81
2023/12/02 07:55:12;;;;;;;19.73;12.75;;;;;;;;;;4981562;28;20572;-81
2023/12/02 07:57:38;;;;;;;21.00;13.27;;;;;;;;;;4981907;28;20235;-81
2023/12/02 08:00:04;;;;;;;20.98;13.52;;;;;;;;;;4981718;28;20489;-81
2023/12/02 08:02:30;;;;;;;15.98;11.63;;;;;;;;;;4981762;28;20179;-82
2023/12/02 08:04:59;;;;;;;15.82;9.88;;;;;;;;;;4981355;28;20205;-81
2023/12/02 08:07:25;;;;;;;14.93;9.45;;;;;;;;;;4980206;28;20222;-81
2023/12/02 08:09:51;;;;;;;15.88;10.52;;;;;;;;;;4981469;28;20176;-81
2023/12/02 08:12:17;;;;;;;17.95;10.98;;;;;;;;;;4981233;28;20196;-81
2023/12/02 08:14:43;;;;;;;15.50;9.27;;;;;;;;;;4996529;28;20721;-82
2023/12/02 08:17:09;;;;;;;17.17;9.80;;;;;;;;;;5012687;28;20200;-82
2023/12/02 08:19:35;;;;;;;15.45;10.00;;;;;;;;;;4980546;28;20183;-81
2023/12/02 08:22:02;;;;;;;13.97;9.10;;;;;;;;;;4980209;28;20180;-81
2023/12/02 08:24:28;;;;;;;16.17;10.40;;;;;;;;;;4981738;28;20412;-81
2023/12/02 08:26:53;;;;;;;14.38;8.27;;;;;;;;;;4980678;28;20234;-81
2023/12/02 08:29:19;;;;;;;16.20;9.43;;;;;;;;;;4981009;28;20527;-81
2023/12/02 08:31:45;;;;;;;13.90;9.33;;;;;;;;;;4980632;28;20477;-81
2023/12/02 08:34:11;;;;;;;14.17;9.47;;;;;;;;;;4981329;28;20410;-81
2023/12/02 08:36:37;;;;;;;13.27;9.20;;;;;;;;;;4980924;28;20407;-81
2023/12/02 08:39:04;;;;;;;16.87;9.97;;;;;;;;;;4980948;28;20502;-81
2023/12/02 08:41:31;;;;;;;26.20;14.45;;;;;;;;;;4981186;28;20415;-81
2023/12/02 08:43:57;;;;;;;19.08;11.52;;;;;;;;;;4980752;28;20567;-82
2023/12/02 08:46:23;;;;;;;24.33;13.45;;;;;;;;;;4980962;28;20259;-81
2023/12/02 08:48:49;;;;;;;21.90;13.13;;;;;;;;;;4980428;28;20204;-80
2023/12/02 08:51:15;;;;;;;16.17;10.60;;;;;;;;;;4981677;28;20909;-79
2023/12/02 08:53:41;;;;;;;14.18;10.35;;;;;;;;;;5012428;28;20403;-80
2023/12/02 08:56:08;;;;;;;16.55;9.93;;;;;;;;;;4978414;28;20551;-80
2023/12/02 08:58:34;;;;;;;13.70;9.18;;;;;;;;;;4976582;28;20187;-82
2023/12/02 09:01:00;;;;;;;13.82;8.95;;;;;;;;;;4992306;28;20196;-81
2023/12/02 09:03:26;;;;;;;12.35;9.32;;;;;;;;;;4993947;28;20192;-81
2023/12/02 09:05:55;;;;;;;13.27;8.77;;;;;;;;;;4977819;28;20184;-81
2023/12/02 09:08:21;;;;;;;11.75;8.80;;;;;;;;;;4978559;28;20633;-82
2023/12/02 09:10:47;;;;;;;13.20;9.05;;;;;;;;;;4979332;28;20195;-82
2023/12/02 09:13:32;;;;;;;12.57;8.30;;;;;;;;;;4976673;28;20212;-81
2023/12/02 09:15:58;;;;;;;16.83;8.68;;;;;;;;;;4979330;28;20179;-81
2023/12/02 09:18:29;;;;;;;12.77;8.68;;;;;;;;;;5010769;28;20601;-81
2023/12/02 09:20:55;;;;;;;15.38;9.02;;;;;;;;;;4977076;28;20198;-81
2023/12/02 09:23:22;;;;;;;11.23;7.78;;;;;;;;;;4978400;28;20198;-81
2023/12/02 09:25:49;;;;;;;16.88;9.90;;;;;;;;;;4977214;28;20192;-82
2023/12/02 09:28:19;;;;;;;10.25;8.63;;;;;;;;;;4977483;28;20235;-82
2023/12/02 09:30:51;;;;;;;13.52;8.50;;;;;;;;;;4979654;28;20671;-81
2023/12/02 09:33:17;;;;;;;13.68;7.40;;;;;;;;;;4979737;28;20211;-81
2023/12/02 09:35:43;;;;;;;14.15;8.85;;;;;;;;;;4992261;28;20187;-82
2023/12/02 09:38:09;;;;;;;12.65;9.00;;;;;;;;;;4976445;28;20214;-81
2023/12/02 09:40:41;;;;;;;11.70;7.85;;;;;;;;;;4977195;28;20230;-83
2023/12/02 09:43:18;;;;;;;13.90;8.43;;;;;;;;;;4978142;28;20279;-82
2023/12/02 09:45:53;;;;;;;13.50;8.10;;;;;;;;;;4979071;28;20526;-82
2023/12/02 09:48:23;;;;;;;14.82;7.75;;;;;;;;;;4978268;28;20221;-84
2023/12/02 09:50:58;;;;;;;11.75;6.57;;;;;;;;;;4977446;28;20173;-81
2023/12/02 09:53:36;;;;;;;13.60;7.85;;;;;;;;;;4977833;28;20267;-81
2023/12/02 09:56:07;;;;;;;12.73;8.15;;;;;;;;;;4979696;28;20184;-81
2023/12/02 09:58:37;;;;;;;9.68;7.00;;;;;;;;;;4980294;28;20187;-81
2023/12/02 10:01:08;;;;;;;12.13;7.78;;;;;;;;;;4980394;28;20211;-82
2023/12/02 10:03:46;;;;;;;16.17;10.25;;;;;;;;;;4979385;28;20194;-82
2023/12/02 10:06:31;;;;;;;11.80;8.15;;;;;;;;;;4980226;28;20568;-82
2023/12/02 10:09:10;;;;;;;22.45;8.20;;;;;;;;;;4979943;28;20184;-82
2023/12/02 10:11:40;;;;;;;17.48;8.77;;;;;;;;;;4979305;28;20220;-82
2023/12/02 10:14:12;;;;;;;13.73;8.90;;;;;;;;;;4979537;28;20227;-81
2023/12/02 10:16:40;;;;;;;17.13;9.15;;;;;;;;;;4979130;28;20176;-83
2023/12/02 10:19:11;;;;;;;12.95;8.80;;;;;;;;;;4978528;28;20279;-82
2023/12/02 10:21:37;;;;;;;15.07;6.55;;;;;;;;;;4979694;28;20719;-82
2023/12/02 10:24:07;;;;;;;13.73;9.32;;;;;;;;;;4979701;28;20224;-82
2023/12/02 10:26:41;;;;;;;16.30;9.07;;;;;;;;;;4979005;28;20277;-82
2023/12/02 10:29:19;;;;;;;15.48;10.18;;;;;;;;;;4982340;28;20255;-82
2023/12/02 10:31:56;;;;;;;13.05;9.15;;;;;;;;;;4983652;28;20325;-82
2023/12/02 10:34:28;;;;;;;14.65;9.15;;;;;;;;;;4983897;28;20176;-82
2023/12/02 10:36:55;;;;;;;13.55;9.32;;;;;;;;;;4983478;28;20547;-82
2023/12/02 10:39:30;;;;;;;11.05;8.20;;;;;;;;;;4983683;28;20208;-82
2023/12/02 10:42:01;;;;;;;17.38;10.32;;;;;;;;;;4983420;28;20515;-82
2023/12/02 10:44:29;;;;;;;15.00;10.60;;;;;;;;;;4983377;28;20183;-82
2023/12/02 10:46:57;;;;;;;18.30;11.25;;;;;;;;;;4983244;28;20217;-82
2023/12/02 10:49:23;;;;;;;14.75;10.52;;;;;;;;;;4983180;28;20191;-83
2023/12/02 10:51:50;;;;;;;17.80;11.80;;;;;;;;;;4982114;28;20187;-82
2023/12/02 10:54:20;;;;;;;16.42;10.07;;;;;;;;;;4982254;28;20596;-82
2023/12/02 10:56:46;;;;;;;18.02;11.50;;;;;;;;;;4983468;28;20195;-82
2023/12/02 10:59:13;;;;;;;19.80;12.20;;;;;;;;;;4982342;28;20240;-82
2023/12/02 11:01:45;;;;;;;19.23;12.35;;;;;;;;;;4982549;28;20231;-82
2023/12/02 11:04:18;;;;;;;18.95;11.45;;;;;;;;;;4982166;28;20239;-82
2023/12/02 11:06:50;;;;;;;18.55;11.40;;;;;;;;;;4983278;28;20226;-83
2023/12/02 11:09:16;;;;;;;20.15;10.50;;;;;;;;;;4983129;28;20185;-82
2023/12/02 11:11:47;;;;;;;12.35;8.88;;;;;;;;;;4983008;28;20168;-83
2023/12/02 11:14:18;;;;;;;15.13;10.85;;;;;;;;;;4981017;28;20176;-82
2023/12/02 11:17:06;;;;;;;19.65;11.68;;;;;;;;;;4982461;28;20200;-82
2023/12/02 11:19:40;;;;;;;16.17;9.80;;;;;;;;;;4983061;28;20172;-82
2023/12/02 11:22:18;;;;;;;21.42;11.20;;;;;;;;;;4982922;28;20164;-82
2023/12/02 11:25:07;;;;;;;16.85;11.65;;;;;;;;;;4982373;28;20255;-83
2023/12/02 11:27:33;;;;;;;17.92;11.50;;;;;;;;;;4982643;28;20235;-84
2023/12/02 11:30:11;;;;;;;16.20;11.07;;;;;;;;;;4982435;28;20189;-82
2023/12/02 11:32:46;;;;;;;14.43;9.25;;;;;;;;;;4982263;28;20412;-82
2023/12/02 11:35:19;;;;;;;15.25;10.80;;;;;;;;;;4982400;28;20646;-82
2023/12/02 11:37:58;;;;;;;14.27;8.63;;;;;;;;;;4982344;28;20173;-82
2023/12/02 11:40:53;;;;;;;19.73;11.30;;;;;;;;;;4982938;28;20180;-81
2023/12/02 11:43:19;;;;;;;14.52;10.32;;;;;;;;;;4977793;28;20216;-82
2023/12/02 11:45:55;;;;;;;18.67;12.67;;;;;;;;;;4981363;28;20183;-82
2023/12/02 11:48:25;;;;;;;18.15;10.48;;;;;;;;;;4982554;28;20783;-84
2023/12/02 11:51:14;;;;;;;16.27;10.10;;;;;;;;;;4981624;28;20192;-82
2023/12/02 11:53:46;;;;;;;19.25;10.65;;;;;;;;;;4982833;28;20180;-85
2023/12/02 11:56:13;;;;;;;16.65;10.82;;;;;;;;;;4982986;28;20173;-84
2023/12/02 11:58:41;;;;;;;16.70;11.98;;;;;;;;;;4983003;28;20187;-81
2023/12/02 12:01:13;;;;;;;17.15;12.90;;;;;;;;;;4980763;28;20235;-82
2023/12/02 12:03:46;;;;;;;14.02;10.90;;;;;;;;;;4982648;28;20165;-84
2023/12/02 12:06:24;;;;;;;16.73;11.82;;;;;;;;;;4981919;28;20176;-82
2023/12/02 12:08:59;;;;;;;16.92;12.55;;;;;;;;;;4981596;28;20645;-82
2023/12/02 12:11:26;;;;;;;13.07;10.05;;;;;;;;;;4982187;28;20176;-82
2023/12/02 12:13:53;;;;;;;14.93;9.73;;;;;;;;;;5013028;28;20587;-82
2023/12/02 12:16:19;;;;;;;13.48;9.88;;;;;;;;;;4982212;28;20192;-81
2023/12/02 12:18:45;;;;;;;14.37;8.80;;;;;;;;;;4982089;28;20728;-83
2023/12/02 12:21:11;;;;;;;15.55;10.02;;;;;;;;;;4982066;28;20761;-81
2023/12/02 12:23:38;;;;;;;15.52;10.32;;;;;;;;;;4982439;28;20524;-81
2023/12/02 12:26:05;;;;;;;15.15;10.35;;;;;;;;;;4982367;28;20636;-81
2023/12/02 12:28:32;;;;;;;15.45;10.75;;;;;;;;;;4982346;28;20168;-81
2023/12/02 12:30:58;;;;;;;16.92;10.13;;;;;;;;;;4981819;28;20181;-82
2023/12/02 12:33:24;;;;;;;14.87;9.93;;;;;;;;;;5013223;28;20272;-83
2023/12/02 12:35:50;;;;;;;15.97;9.70;;;;;;;;;;4964543;28;20492;-82
2023/12/02 12:38:16;;;;;;;15.40;10.30;;;;;;;;;;4981524;28;20915;-81
2023/12/02 12:40:43;;;;;;;15.18;9.70;;;;;;;;;;4980485;28;20234;-81
2023/12/02 12:43:11;;;;;;;13.88;10.15;;;;;;;;;;4980276;28;20642;-82
2023/12/02 12:45:38;;;;;;;13.15;9.52;;;;;;;;;;4981886;28;20183;-81
2023/12/02 12:48:05;;;;;;;15.48;9.73;;;;;;;;;;4981549;28;20231;-82
2023/12/02 12:50:32;;;;;;;15.70;10.10;;;;;;;;;;4980992;28;20177;-81
2023/12/02 12:53:02;;;;;;;16.52;10.63;;;;;;;;;;4981730;28;20178;-81
2023/12/02 12:55:29;;;;;;;13.38;9.60;;;;;;;;;;4981837;28;20243;-82
2023/12/02 12:57:59;;;;;;;13.85;9.60;;;;;;;;;;4981769;28;20184;-83
2023/12/02 13:00:27;;;;;;;15.55;10.38;;;;;;;;;;4981697;28;20189;-82
2023/12/02 13:03:12;;;;;;;12.77;9.48;;;;;;;;;;4981174;28;20168;-83
2023/12/02 13:05:42;;;;;;;14.48;9.70;;;;;;;;;;4981062;28;20243;-83
2023/12/02 13:08:24;;;;;;;16.27;10.18;;;;;;;;;;4981335;28;20292;-80
2023/12/02 13:10:54;;;;;;;16.27;10.35;;;;;;;;;;4980322;28;20201;-83
2023/12/02 13:13:21;;;;;;;19.20;10.77;;;;;;;;;;4981179;28;20184;-82
2023/12/02 13:15:49;;;;;;;17.58;12.20;;;;;;;;;;5013036;28;20243;-82
2023/12/02 13:18:19;;;;;;;16.75;10.70;;;;;;;;;;4980165;28;20219;-81
2023/12/02 13:20:45;;;;;;;19.65;10.43;;;;;;;;;;4980318;28;20278;-81
2023/12/02 13:23:14;;;;;;;16.58;10.60;;;;;;;;;;4981049;28;20182;-82
2023/12/02 13:25:41;;;;;;;12.43;9.23;;;;;;;;;;4981248;28;20176;-81
2023/12/02 13:28:07;;;;;;;14.50;10.55;;;;;;;;;;4981238;28;20252;-81
2023/12/02 13:30:36;;;;;;;14.50;10.30;;;;;;;;;;4981141;28;20171;-82
2023/12/02 13:33:11;;;;;;;18.20;11.52;;;;;;;;;;4979468;28;20181;-81
2023/12/02 13:35:39;;;;;;;18.05;11.20;;;;;;;;;;4981115;28;20500;-81
2023/12/02 13:38:11;;;;;;;15.52;10.07;;;;;;;;;;4980620;28;20267;-82
2023/12/02 13:40:40;;;;;;;18.27;11.77;;;;;;;;;;4981519;28;20178;-82
2023/12/02 13:43:09;;;;;;;15.57;10.52;;;;;;;;;;4981143;28;20178;-82
2023/12/02 13:45:36;;;;;;;14.73;11.02;;;;;;;;;;4979664;28;20193;-82
2023/12/02 13:48:04;;;;;;;15.38;10.35;;;;;;;;;;4981494;28;20250;-82
2023/12/02 13:50:50;;;;;;;14.73;9.93;;;;;;;;;;4980996;28;20176;-82
2023/12/02 13:53:37;;;;;;;15.93;10.73;;;;;;;;;;4976513;28;20560;-81
2023/12/02 13:56:03;;;;;;;13.68;8.98;;;;;;;;;;4981384;28;20535;-81
2023/12/02 13:58:36;;;;;;;13.63;9.90;;;;;;;;;;4981303;28;20738;-81
2023/12/02 14:01:07;;;;;;;16.00;10.93;;;;;;;;;;4980483;28;20182;-81
2023/12/02 14:03:45;;;;;;;17.73;11.07;;;;;;;;;;5016299;28;20277;-81
2023/12/02 14:06:21;;;;;;;14.60;10.18;;;;;;;;;;4985169;28;20180;-81
2023/12/02 14:08:55;;;;;;;13.07;9.80;;;;;;;;;;4985821;28;20179;-81
2023/12/02 14:11:28;;;;;;;13.63;9.55;;;;;;;;;;4985282;28;20172;-81
2023/12/02 14:13:54;;;;;;;15.18;10.00;;;;;;;;;;4984116;28;20183;-82
2023/12/02 14:16:23;;;;;;;13.30;8.70;;;;;;;;;;4985287;28;20176;-81
2023/12/02 14:19:08;;;;;;;15.88;9.85;;;;;;;;;;4984866;28;20427;-81
2023/12/02 14:21:34;;;;;;;16.60;10.55;;;;;;;;;;4985741;28;20172;-81
2023/12/02 14:24:16;;;;;;;16.97;10.00;;;;;;;;;;4984890;28;20323;-82
2023/12/02 14:26:43;;;;;;;15.07;10.77;;;;;;;;;;4984778;28;20481;-81